Time;durP1;ratioP1;P1;durP2;ratioP2;P2;SDS_P1;SDS_P2;PMS_P1;PMS_P2;Temp;Humidity;BMP_temperature;BMP_pressure;BME280_temperature;BME280_humidity;BME280_pressure;Samples;Min_cycle;Max_cycle;Signal;HPM_P1;HPM_P2
2022/01/11 00:00:01;;;;;;;22.7;13.3;;;;;;;1.68;100;96147.36;;;;
2022/01/11 00:01:03;;;;;;;22.7;13.3;;;;;;;1.68;100;96147.36;;;;
2022/01/11 00:02:04;;;;;;;22.05;13.6;;;;;;;1.74;100;96157.37;;;;
2022/01/11 00:03:05;;;;;;;22.05;13.6;;;;;;;1.74;100;96157.37;;;;
2022/01/11 00:04:06;;;;;;;22.05;13.6;;;;;;;1.74;100;96157.37;;;;
2022/01/11 00:05:06;;;;;;;22.05;13.6;;;;;;;1.74;100;96157.37;;;;
2022/01/11 00:06:21;;;;;;;22.05;13.6;;;;;;;1.74;100;96157.37;;;;
2022/01/11 00:07:23;;;;;;;22.05;13.6;;;;;;;1.74;100;96157.37;;;;
2022/01/11 00:08:30;;;;;;;22.05;13.6;;;;;;;1.74;100;96157.37;;;;
2022/01/11 00:09:34;;;;;;;22.05;13.6;;;;;;;1.74;100;96157.37;;;;
2022/01/11 00:10:45;;;;;;;22.05;13.6;;;;;;;1.74;100;96157.37;;;;
2022/01/11 00:11:46;;;;;;;22.05;13.6;;;;;;;1.74;100;96157.37;;;;
2022/01/11 00:12:48;;;;;;;22.7;12.3;;;;;;;1.73;100;96149.95;;;;
2022/01/11 00:13:49;;;;;;;22.7;12.3;;;;;;;1.73;100;96149.95;;;;
2022/01/11 00:14:49;;;;;;;22.7;12.3;;;;;;;1.73;100;96149.95;;;;
2022/01/11 00:15:50;;;;;;;22.7;12.3;;;;;;;1.73;100;96149.95;;;;
2022/01/11 00:16:50;;;;;;;22.7;12.3;;;;;;;1.73;100;96149.95;;;;
2022/01/11 00:17:51;;;;;;;22.7;12.3;;;;;;;1.73;100;96149.95;;;;
2022/01/11 00:18:51;;;;;;;22.7;12.3;;;;;;;1.73;100;96149.95;;;;
2022/01/11 00:19:52;;;;;;;22.7;12.3;;;;;;;1.73;100;96149.95;;;;
2022/01/11 00:20:53;;;;;;;22.7;12.3;;;;;;;1.73;100;96149.95;;;;
2022/01/11 00:21:54;;;;;;;22.7;12.3;;;;;;;1.73;100;96149.95;;;;
2022/01/11 00:28:10;;;;;;;21.1;13.05;;;;;;;1.72;100;96153.2;;;;
2022/01/11 00:29:13;;;;;;;21.1;13.05;;;;;;;1.72;100;96153.2;;;;
2022/01/11 00:30:13;;;;;;;21.1;13.05;;;;;;;1.72;100;96153.2;;;;
2022/01/11 00:31:14;;;;;;;21.1;13.05;;;;;;;1.72;100;96153.2;;;;
2022/01/11 00:32:17;;;;;;;21.1;13.05;;;;;;;1.72;100;96153.2;;;;
2022/01/11 00:33:22;;;;;;;21.1;13.05;;;;;;;1.72;100;96153.2;;;;
2022/01/11 00:34:27;;;;;;;26;14.95;;;;;;;1.79;100;96169.7;;;;
2022/01/11 00:35:38;;;;;;;26;14.95;;;;;;;1.79;100;96169.7;;;;
2022/01/11 00:36:42;;;;;;;26;14.95;;;;;;;1.79;100;96169.7;;;;
2022/01/11 00:37:44;;;;;;;26;14.95;;;;;;;1.79;100;96169.7;;;;
2022/01/11 00:38:44;;;;;;;26;14.95;;;;;;;1.79;100;96169.7;;;;
2022/01/11 00:39:45;;;;;;;26;14.95;;;;;;;1.79;100;96169.7;;;;
2022/01/11 00:40:47;;;;;;;26;14.95;;;;;;;1.79;100;96169.7;;;;
2022/01/11 00:41:49;;;;;;;26;14.95;;;;;;;1.79;100;96169.7;;;;
2022/01/11 00:42:50;;;;;;;26;14.95;;;;;;;1.79;100;96169.7;;;;
2022/01/11 00:43:51;;;;;;;26;14.95;;;;;;;1.79;100;96169.7;;;;
2022/01/11 00:44:51;;;;;;;24.3;12.85;;;;;;;1.79;100;96174.18;;;;
2022/01/11 00:45:52;;;;;;;24.3;12.85;;;;;;;1.79;100;96174.18;;;;
2022/01/11 00:46:53;;;;;;;24.3;12.85;;;;;;;1.79;100;96174.18;;;;
2022/01/11 00:47:54;;;;;;;24.3;12.85;;;;;;;1.79;100;96174.18;;;;
2022/01/11 00:48:55;;;;;;;24.3;12.85;;;;;;;1.79;100;96174.18;;;;
2022/01/11 00:49:55;;;;;;;24.3;12.85;;;;;;;1.79;100;96174.18;;;;
2022/01/11 00:50:56;;;;;;;24.3;12.85;;;;;;;1.79;100;96174.18;;;;
2022/01/11 00:51:57;;;;;;;24.3;12.85;;;;;;;1.79;100;96174.18;;;;
2022/01/11 00:52:57;;;;;;;24.3;12.85;;;;;;;1.79;100;96174.18;;;;
2022/01/11 00:53:58;;;;;;;24.3;12.85;;;;;;;1.79;100;96174.18;;;;
2022/01/11 00:54:58;;;;;;;21.5;12.65;;;;;;;1.84;100;96186.08;;;;
2022/01/11 00:55:59;;;;;;;21.5;12.65;;;;;;;1.84;100;96186.08;;;;
2022/01/11 00:56:59;;;;;;;21.5;12.65;;;;;;;1.84;100;96186.08;;;;
2022/01/11 00:58:02;;;;;;;21.5;12.65;;;;;;;1.84;100;96186.08;;;;
2022/01/11 00:59:04;;;;;;;21.5;12.65;;;;;;;1.84;100;96186.08;;;;
2022/01/11 01:00:08;;;;;;;21.5;12.65;;;;;;;1.84;100;96186.08;;;;
2022/01/11 01:01:10;;;;;;;21.5;12.65;;;;;;;1.84;100;96186.08;;;;
2022/01/11 01:02:10;;;;;;;21.5;12.65;;;;;;;1.84;100;96186.08;;;;
2022/01/11 01:03:11;;;;;;;21.5;12.65;;;;;;;1.84;100;96186.08;;;;
2022/01/11 01:04:11;;;;;;;21.5;12.65;;;;;;;1.84;100;96186.08;;;;
2022/01/11 01:05:12;;;;;;;21.5;12.65;;;;;;;1.84;100;96186.08;;;;
2022/01/11 01:06:12;;;;;;;22.4;14.1;;;;;;;1.88;100;96200.75;;;;
2022/01/11 01:07:13;;;;;;;22.4;14.1;;;;;;;1.88;100;96200.75;;;;
2022/01/11 01:08:13;;;;;;;22.4;14.1;;;;;;;1.88;100;96200.75;;;;
2022/01/11 01:09:14;;;;;;;22.4;14.1;;;;;;;1.88;100;96200.75;;;;
2022/01/11 01:10:22;;;;;;;22.4;14.1;;;;;;;1.88;100;96200.75;;;;
2022/01/11 01:11:23;;;;;;;22.4;14.1;;;;;;;1.88;100;96200.75;;;;
2022/01/11 01:12:23;;;;;;;22.4;14.1;;;;;;;1.88;100;96200.75;;;;
2022/01/11 01:13:24;;;;;;;22.4;14.1;;;;;;;1.88;100;96200.75;;;;
2022/01/11 01:14:27;;;;;;;22.4;14.1;;;;;;;1.88;100;96200.75;;;;
2022/01/11 01:15:27;;;;;;;22.4;14.1;;;;;;;1.88;100;96200.75;;;;
2022/01/11 01:16:28;;;;;;;27.5;13.1;;;;;;;1.88;100;96202.92;;;;
2022/01/11 01:17:28;;;;;;;27.5;13.1;;;;;;;1.88;100;96202.92;;;;
2022/01/11 01:18:30;;;;;;;27.5;13.1;;;;;;;1.88;100;96202.92;;;;
2022/01/11 01:19:30;;;;;;;27.5;13.1;;;;;;;1.88;100;96202.92;;;;
2022/01/11 01:20:31;;;;;;;27.5;13.1;;;;;;;1.88;100;96202.92;;;;
2022/01/11 01:21:37;;;;;;;27.5;13.1;;;;;;;1.88;100;96202.92;;;;
2022/01/11 01:22:38;;;;;;;27.5;13.1;;;;;;;1.88;100;96202.92;;;;
2022/01/11 01:23:39;;;;;;;27.5;13.1;;;;;;;1.88;100;96202.92;;;;
2022/01/11 01:24:39;;;;;;;27.5;13.1;;;;;;;1.88;100;96202.92;;;;
2022/01/11 01:25:40;;;;;;;27.5;13.1;;;;;;;1.88;100;96202.92;;;;
2022/01/11 01:26:43;;;;;;;21.35;12.55;;;;;;;1.9;100;96213.4;;;;
2022/01/11 01:27:44;;;;;;;21.35;12.55;;;;;;;1.9;100;96213.4;;;;
2022/01/11 01:28:44;;;;;;;21.35;12.55;;;;;;;1.9;100;96213.4;;;;
2022/01/11 01:29:45;;;;;;;21.35;12.55;;;;;;;1.9;100;96213.4;;;;
2022/01/11 01:30:46;;;;;;;21.35;12.55;;;;;;;1.9;100;96213.4;;;;
2022/01/11 01:31:48;;;;;;;21.35;12.55;;;;;;;1.9;100;96213.4;;;;
2022/01/11 01:32:48;;;;;;;21.35;12.55;;;;;;;1.9;100;96213.4;;;;
2022/01/11 01:33:51;;;;;;;21.35;12.55;;;;;;;1.9;100;96213.4;;;;
2022/01/11 01:34:54;;;;;;;21.35;12.55;;;;;;;1.9;100;96213.4;;;;
2022/01/11 01:36:01;;;;;;;21.35;12.55;;;;;;;1.9;100;96213.4;;;;
2022/01/11 01:37:02;;;;;;;21.35;12.55;;;;;;;1.9;100;96213.4;;;;
2022/01/11 01:38:04;;;;;;;25;13.35;;;;;;;1.91;100;96215;;;;
2022/01/11 01:39:05;;;;;;;25;13.35;;;;;;;1.91;100;96215;;;;
2022/01/11 01:40:06;;;;;;;25;13.35;;;;;;;1.91;100;96215;;;;
2022/01/11 01:41:14;;;;;;;25;13.35;;;;;;;1.91;100;96215;;;;
2022/01/11 01:42:15;;;;;;;25;13.35;;;;;;;1.91;100;96215;;;;
2022/01/11 01:43:23;;;;;;;25;13.35;;;;;;;1.91;100;96215;;;;
2022/01/11 01:44:25;;;;;;;25;13.35;;;;;;;1.91;100;96215;;;;
2022/01/11 01:45:26;;;;;;;25;13.35;;;;;;;1.91;100;96215;;;;
2022/01/11 01:46:26;;;;;;;25;13.35;;;;;;;1.91;100;96215;;;;
2022/01/11 01:47:27;;;;;;;25;13.35;;;;;;;1.91;100;96215;;;;
2022/01/11 01:48:28;;;;;;;22.3;12.8;;;;;;;1.84;100;96210.89;;;;
2022/01/11 01:49:31;;;;;;;22.3;12.8;;;;;;;1.84;100;96210.89;;;;
2022/01/11 01:50:32;;;;;;;22.3;12.8;;;;;;;1.84;100;96210.89;;;;
2022/01/11 01:51:33;;;;;;;22.3;12.8;;;;;;;1.84;100;96210.89;;;;
2022/01/11 01:52:34;;;;;;;22.3;12.8;;;;;;;1.84;100;96210.89;;;;
2022/01/11 01:53:35;;;;;;;22.3;12.8;;;;;;;1.84;100;96210.89;;;;
2022/01/11 01:54:40;;;;;;;22.3;12.8;;;;;;;1.84;100;96210.89;;;;
2022/01/11 01:55:41;;;;;;;22.3;12.8;;;;;;;1.84;100;96210.89;;;;
2022/01/11 01:56:44;;;;;;;22.3;12.8;;;;;;;1.84;100;96210.89;;;;
2022/01/11 01:57:45;;;;;;;22.3;12.8;;;;;;;1.84;100;96210.89;;;;
2022/01/11 01:58:46;;;;;;;24.5;13.3;;;;;;;1.79;100;96205.64;;;;
2022/01/11 01:59:46;;;;;;;24.5;13.3;;;;;;;1.79;100;96205.64;;;;
2022/01/11 02:00:54;;;;;;;24.5;13.3;;;;;;;1.79;100;96205.64;;;;
2022/01/11 02:01:55;;;;;;;24.5;13.3;;;;;;;1.79;100;96205.64;;;;
2022/01/11 02:02:55;;;;;;;24.5;13.3;;;;;;;1.79;100;96205.64;;;;
2022/01/11 02:04:04;;;;;;;24.5;13.3;;;;;;;1.79;100;96205.64;;;;
2022/01/11 02:05:06;;;;;;;24.5;13.3;;;;;;;1.79;100;96205.64;;;;
2022/01/11 02:06:07;;;;;;;24.5;13.3;;;;;;;1.79;100;96205.64;;;;
2022/01/11 02:07:10;;;;;;;24.5;13.3;;;;;;;1.79;100;96205.64;;;;
2022/01/11 02:08:11;;;;;;;24.5;13.3;;;;;;;1.79;100;96205.64;;;;
2022/01/11 02:09:12;;;;;;;24.5;13.3;;;;;;;1.79;100;96205.64;;;;
2022/01/11 02:10:14;;;;;;;24.85;13.6;;;;;;;1.76;100;96213.53;;;;
2022/01/11 02:11:15;;;;;;;24.85;13.6;;;;;;;1.76;100;96213.53;;;;
2022/01/11 02:12:16;;;;;;;24.85;13.6;;;;;;;1.76;100;96213.53;;;;
2022/01/11 02:13:17;;;;;;;24.85;13.6;;;;;;;1.76;100;96213.53;;;;
2022/01/11 02:14:17;;;;;;;24.85;13.6;;;;;;;1.76;100;96213.53;;;;
2022/01/11 02:15:18;;;;;;;24.85;13.6;;;;;;;1.76;100;96213.53;;;;
2022/01/11 02:16:21;;;;;;;24.85;13.6;;;;;;;1.76;100;96213.53;;;;
2022/01/11 02:17:22;;;;;;;24.85;13.6;;;;;;;1.76;100;96213.53;;;;
2022/01/11 02:18:26;;;;;;;24.85;13.6;;;;;;;1.76;100;96213.53;;;;
2022/01/11 02:19:27;;;;;;;24.85;13.6;;;;;;;1.76;100;96213.53;;;;
2022/01/11 02:20:27;;;;;;;24.25;14.15;;;;;;;1.77;100;96219.67;;;;
2022/01/11 02:21:28;;;;;;;24.25;14.15;;;;;;;1.77;100;96219.67;;;;
2022/01/11 02:22:28;;;;;;;24.25;14.15;;;;;;;1.77;100;96219.67;;;;
2022/01/11 02:23:29;;;;;;;24.25;14.15;;;;;;;1.77;100;96219.67;;;;
2022/01/11 02:24:33;;;;;;;24.25;14.15;;;;;;;1.77;100;96219.67;;;;
2022/01/11 02:25:33;;;;;;;24.25;14.15;;;;;;;1.77;100;96219.67;;;;
2022/01/11 02:26:34;;;;;;;24.25;14.15;;;;;;;1.77;100;96219.67;;;;
2022/01/11 02:27:35;;;;;;;24.25;14.15;;;;;;;1.77;100;96219.67;;;;
2022/01/11 02:28:35;;;;;;;24.25;14.15;;;;;;;1.77;100;96219.67;;;;
2022/01/11 02:29:36;;;;;;;24.25;14.15;;;;;;;1.77;100;96219.67;;;;
2022/01/11 02:30:37;;;;;;;24.25;14.15;;;;;;;1.77;100;96219.67;;;;
2022/01/11 02:31:38;;;;;;;20;13.1;;;;;;;1.86;100;96233.36;;;;
2022/01/11 02:32:39;;;;;;;20;13.1;;;;;;;1.86;100;96233.36;;;;
2022/01/11 02:33:48;;;;;;;20;13.1;;;;;;;1.86;100;96233.36;;;;
2022/01/11 02:34:51;;;;;;;20;13.1;;;;;;;1.86;100;96233.36;;;;
2022/01/11 02:35:52;;;;;;;20;13.1;;;;;;;1.86;100;96233.36;;;;
2022/01/11 02:36:53;;;;;;;20;13.1;;;;;;;1.86;100;96233.36;;;;
2022/01/11 02:37:53;;;;;;;20;13.1;;;;;;;1.86;100;96233.36;;;;
2022/01/11 02:38:54;;;;;;;20;13.1;;;;;;;1.86;100;96233.36;;;;
2022/01/11 02:39:55;;;;;;;20;13.1;;;;;;;1.86;100;96233.36;;;;
2022/01/11 02:40:56;;;;;;;20;13.1;;;;;;;1.86;100;96233.36;;;;
2022/01/11 02:41:56;;;;;;;23.05;13.3;;;;;;;1.91;100;96237.62;;;;
2022/01/11 02:42:58;;;;;;;23.05;13.3;;;;;;;1.91;100;96237.62;;;;
2022/01/11 02:43:58;;;;;;;23.05;13.3;;;;;;;1.91;100;96237.62;;;;
2022/01/11 02:45:00;;;;;;;23.05;13.3;;;;;;;1.91;100;96237.62;;;;
2022/01/11 02:46:01;;;;;;;23.05;13.3;;;;;;;1.91;100;96237.62;;;;
2022/01/11 02:47:02;;;;;;;23.05;13.3;;;;;;;1.91;100;96237.62;;;;
2022/01/11 02:48:03;;;;;;;23.05;13.3;;;;;;;1.91;100;96237.62;;;;
2022/01/11 02:49:04;;;;;;;23.05;13.3;;;;;;;1.91;100;96237.62;;;;
2022/01/11 02:50:04;;;;;;;23.05;13.3;;;;;;;1.91;100;96237.62;;;;
2022/01/11 02:51:06;;;;;;;23.05;13.3;;;;;;;1.91;100;96237.62;;;;
2022/01/11 02:52:07;;;;;;;20.5;12.7;;;;;;;1.92;100;96241.99;;;;
2022/01/11 02:53:08;;;;;;;20.5;12.7;;;;;;;1.92;100;96241.99;;;;
2022/01/11 02:54:08;;;;;;;20.5;12.7;;;;;;;1.92;100;96241.99;;;;
2022/01/11 02:55:09;;;;;;;20.5;12.7;;;;;;;1.92;100;96241.99;;;;
2022/01/11 02:56:13;;;;;;;20.5;12.7;;;;;;;1.92;100;96241.99;;;;
2022/01/11 02:57:16;;;;;;;20.5;12.7;;;;;;;1.92;100;96241.99;;;;
2022/01/11 02:58:18;;;;;;;20.5;12.7;;;;;;;1.92;100;96241.99;;;;
2022/01/11 02:59:19;;;;;;;20.5;12.7;;;;;;;1.92;100;96241.99;;;;
2022/01/11 03:00:19;;;;;;;20.5;12.7;;;;;;;1.92;100;96241.99;;;;
2022/01/11 03:01:22;;;;;;;20.5;12.7;;;;;;;1.92;100;96241.99;;;;
2022/01/11 03:02:22;;;;;;;20.5;12.7;;;;;;;1.92;100;96241.99;;;;
2022/01/11 03:03:23;;;;;;;21.6;12.85;;;;;;;1.87;100;96238.94;;;;
2022/01/11 03:04:28;;;;;;;21.6;12.85;;;;;;;1.87;100;96238.94;;;;
2022/01/11 03:05:30;;;;;;;21.6;12.85;;;;;;;1.87;100;96238.94;;;;
2022/01/11 03:06:30;;;;;;;21.6;12.85;;;;;;;1.87;100;96238.94;;;;
2022/01/11 03:07:31;;;;;;;21.6;12.85;;;;;;;1.87;100;96238.94;;;;
2022/01/11 03:08:32;;;;;;;21.6;12.85;;;;;;;1.87;100;96238.94;;;;
2022/01/11 03:09:50;;;;;;;21.6;12.85;;;;;;;1.87;100;96238.94;;;;
2022/01/11 03:10:51;;;;;;;21.6;12.85;;;;;;;1.87;100;96238.94;;;;
2022/01/11 03:11:52;;;;;;;21.6;12.85;;;;;;;1.87;100;96238.94;;;;
2022/01/11 03:12:53;;;;;;;21.6;12.85;;;;;;;1.87;100;96238.94;;;;
2022/01/11 03:13:53;;;;;;;20.3;12.4;;;;;;;1.84;100;96245.92;;;;
2022/01/11 03:14:54;;;;;;;20.3;12.4;;;;;;;1.84;100;96245.92;;;;
2022/01/11 03:15:55;;;;;;;20.3;12.4;;;;;;;1.84;100;96245.92;;;;
2022/01/11 03:16:56;;;;;;;20.3;12.4;;;;;;;1.84;100;96245.92;;;;
2022/01/11 03:17:56;;;;;;;20.3;12.4;;;;;;;1.84;100;96245.92;;;;
2022/01/11 03:18:57;;;;;;;20.3;12.4;;;;;;;1.84;100;96245.92;;;;
2022/01/11 03:19:58;;;;;;;20.3;12.4;;;;;;;1.84;100;96245.92;;;;
2022/01/11 03:20:58;;;;;;;20.3;12.4;;;;;;;1.84;100;96245.92;;;;
2022/01/11 03:21:59;;;;;;;20.3;12.4;;;;;;;1.84;100;96245.92;;;;
2022/01/11 03:22:59;;;;;;;20.3;12.4;;;;;;;1.84;100;96245.92;;;;
2022/01/11 03:24:00;;;;;;;20.3;12.4;;;;;;;1.84;100;96245.92;;;;
2022/01/11 03:25:02;;;;;;;19.75;11.95;;;;;;;1.84;100;96249.98;;;;
2022/01/11 03:26:03;;;;;;;19.75;11.95;;;;;;;1.84;100;96249.98;;;;
2022/01/11 03:27:05;;;;;;;19.75;11.95;;;;;;;1.84;100;96249.98;;;;
2022/01/11 03:28:05;;;;;;;19.75;11.95;;;;;;;1.84;100;96249.98;;;;
2022/01/11 03:29:07;;;;;;;19.75;11.95;;;;;;;1.84;100;96249.98;;;;
2022/01/11 03:30:07;;;;;;;19.75;11.95;;;;;;;1.84;100;96249.98;;;;
2022/01/11 03:31:09;;;;;;;19.75;11.95;;;;;;;1.84;100;96249.98;;;;
2022/01/11 03:32:12;;;;;;;19.75;11.95;;;;;;;1.84;100;96249.98;;;;
2022/01/11 03:33:13;;;;;;;19.75;11.95;;;;;;;1.84;100;96249.98;;;;
2022/01/11 03:34:19;;;;;;;19.75;11.95;;;;;;;1.84;100;96249.98;;;;
2022/01/11 03:35:19;;;;;;;20.3;12;;;;;;;1.87;100;96256.76;;;;
2022/01/11 03:36:20;;;;;;;20.3;12;;;;;;;1.87;100;96256.76;;;;
2022/01/11 03:37:21;;;;;;;20.3;12;;;;;;;1.87;100;96256.76;;;;
2022/01/11 03:38:22;;;;;;;20.3;12;;;;;;;1.87;100;96256.76;;;;
2022/01/11 03:39:23;;;;;;;20.3;12;;;;;;;1.87;100;96256.76;;;;
2022/01/11 03:40:23;;;;;;;20.3;12;;;;;;;1.87;100;96256.76;;;;
2022/01/11 03:41:26;;;;;;;20.3;12;;;;;;;1.87;100;96256.76;;;;
2022/01/11 03:42:26;;;;;;;20.3;12;;;;;;;1.87;100;96256.76;;;;
2022/01/11 03:43:27;;;;;;;20.3;12;;;;;;;1.87;100;96256.76;;;;
2022/01/11 03:44:27;;;;;;;20.3;12;;;;;;;1.87;100;96256.76;;;;
2022/01/11 03:45:28;;;;;;;19.5;11.55;;;;;;;1.88;100;96256.67;;;;
2022/01/11 03:46:28;;;;;;;19.5;11.55;;;;;;;1.88;100;96256.67;;;;
2022/01/11 03:47:29;;;;;;;19.5;11.55;;;;;;;1.88;100;96256.67;;;;
2022/01/11 03:48:29;;;;;;;19.5;11.55;;;;;;;1.88;100;96256.67;;;;
2022/01/11 03:49:30;;;;;;;19.5;11.55;;;;;;;1.88;100;96256.67;;;;
2022/01/11 03:50:31;;;;;;;19.5;11.55;;;;;;;1.88;100;96256.67;;;;
2022/01/11 03:51:35;;;;;;;19.5;11.55;;;;;;;1.88;100;96256.67;;;;
2022/01/11 03:52:35;;;;;;;19.5;11.55;;;;;;;1.88;100;96256.67;;;;
2022/01/11 03:53:50;;;;;;;19.5;11.55;;;;;;;1.88;100;96256.67;;;;
2022/01/11 03:55:04;;;;;;;19.5;11.55;;;;;;;1.88;100;96256.67;;;;
2022/01/11 03:56:21;;;;;;;23.3;12.8;;;;;;;1.84;100;96260.57;;;;
2022/01/11 03:57:22;;;;;;;23.3;12.8;;;;;;;1.84;100;96260.57;;;;
2022/01/11 03:58:26;;;;;;;23.3;12.8;;;;;;;1.84;100;96260.57;;;;
2022/01/11 03:59:27;;;;;;;23.3;12.8;;;;;;;1.84;100;96260.57;;;;
2022/01/11 04:00:27;;;;;;;23.3;12.8;;;;;;;1.84;100;96260.57;;;;
2022/01/11 04:01:28;;;;;;;23.3;12.8;;;;;;;1.84;100;96260.57;;;;
2022/01/11 04:02:28;;;;;;;23.3;12.8;;;;;;;1.84;100;96260.57;;;;
2022/01/11 04:03:29;;;;;;;23.3;12.8;;;;;;;1.84;100;96260.57;;;;
2022/01/11 04:04:29;;;;;;;23.3;12.8;;;;;;;1.84;100;96260.57;;;;
2022/01/11 04:05:29;;;;;;;23.3;12.8;;;;;;;1.84;100;96260.57;;;;
2022/01/11 04:06:30;;;;;;;23.3;12.8;;;;;;;1.84;100;96260.57;;;;
2022/01/11 04:07:31;;;;;;;23.8;12.6;;;;;;;1.75;100;96258.43;;;;
2022/01/11 04:08:32;;;;;;;23.8;12.6;;;;;;;1.75;100;96258.43;;;;
2022/01/11 04:09:33;;;;;;;23.8;12.6;;;;;;;1.75;100;96258.43;;;;
2022/01/11 04:10:33;;;;;;;23.8;12.6;;;;;;;1.75;100;96258.43;;;;
2022/01/11 04:11:34;;;;;;;23.8;12.6;;;;;;;1.75;100;96258.43;;;;
2022/01/11 04:12:35;;;;;;;23.8;12.6;;;;;;;1.75;100;96258.43;;;;
2022/01/11 04:13:36;;;;;;;23.8;12.6;;;;;;;1.75;100;96258.43;;;;
2022/01/11 04:14:38;;;;;;;23.8;12.6;;;;;;;1.75;100;96258.43;;;;
2022/01/11 04:15:38;;;;;;;23.8;12.6;;;;;;;1.75;100;96258.43;;;;
2022/01/11 04:16:39;;;;;;;23.8;12.6;;;;;;;1.75;100;96258.43;;;;
2022/01/11 04:17:39;;;;;;;23.1;13.6;;;;;;;1.68;100;96260.55;;;;
2022/01/11 04:18:40;;;;;;;23.1;13.6;;;;;;;1.68;100;96260.55;;;;
2022/01/11 04:19:40;;;;;;;23.1;13.6;;;;;;;1.68;100;96260.55;;;;
2022/01/11 04:20:41;;;;;;;23.1;13.6;;;;;;;1.68;100;96260.55;;;;
2022/01/11 04:21:41;;;;;;;23.1;13.6;;;;;;;1.68;100;96260.55;;;;
2022/01/11 04:22:42;;;;;;;23.1;13.6;;;;;;;1.68;100;96260.55;;;;
2022/01/11 04:23:43;;;;;;;23.1;13.6;;;;;;;1.68;100;96260.55;;;;
2022/01/11 04:24:43;;;;;;;23.1;13.6;;;;;;;1.68;100;96260.55;;;;
2022/01/11 04:25:44;;;;;;;23.1;13.6;;;;;;;1.68;100;96260.55;;;;
2022/01/11 04:26:44;;;;;;;23.1;13.6;;;;;;;1.68;100;96260.55;;;;
2022/01/11 04:27:45;;;;;;;23.1;13.6;;;;;;;1.68;100;96260.55;;;;
2022/01/11 04:28:45;;;;;;;22.25;13.3;;;;;;;1.66;100;96259.8;;;;
2022/01/11 04:29:46;;;;;;;22.25;13.3;;;;;;;1.66;100;96259.8;;;;
2022/01/11 04:30:46;;;;;;;22.25;13.3;;;;;;;1.66;100;96259.8;;;;
2022/01/11 04:31:47;;;;;;;22.25;13.3;;;;;;;1.66;100;96259.8;;;;
2022/01/11 04:32:48;;;;;;;22.25;13.3;;;;;;;1.66;100;96259.8;;;;
2022/01/11 04:33:49;;;;;;;22.25;13.3;;;;;;;1.66;100;96259.8;;;;
2022/01/11 04:34:49;;;;;;;22.25;13.3;;;;;;;1.66;100;96259.8;;;;
2022/01/11 04:35:50;;;;;;;22.25;13.3;;;;;;;1.66;100;96259.8;;;;
2022/01/11 04:36:51;;;;;;;22.25;13.3;;;;;;;1.66;100;96259.8;;;;
2022/01/11 04:37:52;;;;;;;22.25;13.3;;;;;;;1.66;100;96259.8;;;;
2022/01/11 04:38:52;;;;;;;24.75;14.35;;;;;;;1.68;100;96267.63;;;;
2022/01/11 04:39:53;;;;;;;24.75;14.35;;;;;;;1.68;100;96267.63;;;;
2022/01/11 04:40:53;;;;;;;24.75;14.35;;;;;;;1.68;100;96267.63;;;;
2022/01/11 04:41:54;;;;;;;24.75;14.35;;;;;;;1.68;100;96267.63;;;;
2022/01/11 04:42:55;;;;;;;24.75;14.35;;;;;;;1.68;100;96267.63;;;;
2022/01/11 04:43:55;;;;;;;24.75;14.35;;;;;;;1.68;100;96267.63;;;;
2022/01/11 04:44:56;;;;;;;24.75;14.35;;;;;;;1.68;100;96267.63;;;;
2022/01/11 04:45:56;;;;;;;24.75;14.35;;;;;;;1.68;100;96267.63;;;;
2022/01/11 04:46:57;;;;;;;24.75;14.35;;;;;;;1.68;100;96267.63;;;;
2022/01/11 04:47:57;;;;;;;24.75;14.35;;;;;;;1.68;100;96267.63;;;;
2022/01/11 04:48:59;;;;;;;24.75;14.35;;;;;;;1.68;100;96267.63;;;;
2022/01/11 04:50:00;;;;;;;25.4;13.8;;;;;;;1.68;100;96278.69;;;;
2022/01/11 04:51:00;;;;;;;25.4;13.8;;;;;;;1.68;100;96278.69;;;;
2022/01/11 04:52:03;;;;;;;25.4;13.8;;;;;;;1.68;100;96278.69;;;;
2022/01/11 04:53:05;;;;;;;25.4;13.8;;;;;;;1.68;100;96278.69;;;;
2022/01/11 04:54:06;;;;;;;25.4;13.8;;;;;;;1.68;100;96278.69;;;;
2022/01/11 04:55:07;;;;;;;25.4;13.8;;;;;;;1.68;100;96278.69;;;;
2022/01/11 04:56:08;;;;;;;25.4;13.8;;;;;;;1.68;100;96278.69;;;;
2022/01/11 04:57:09;;;;;;;25.4;13.8;;;;;;;1.68;100;96278.69;;;;
2022/01/11 04:58:09;;;;;;;25.4;13.8;;;;;;;1.68;100;96278.69;;;;
2022/01/11 04:59:10;;;;;;;25.4;13.8;;;;;;;1.68;100;96278.69;;;;
2022/01/11 05:00:10;;;;;;;23.35;13.6;;;;;;;1.75;100;96285.05;;;;
2022/01/11 05:01:13;;;;;;;23.35;13.6;;;;;;;1.75;100;96285.05;;;;
2022/01/11 05:02:14;;;;;;;23.35;13.6;;;;;;;1.75;100;96285.05;;;;
2022/01/11 05:03:14;;;;;;;23.35;13.6;;;;;;;1.75;100;96285.05;;;;
2022/01/11 05:04:15;;;;;;;23.35;13.6;;;;;;;1.75;100;96285.05;;;;
2022/01/11 05:05:16;;;;;;;23.35;13.6;;;;;;;1.75;100;96285.05;;;;
2022/01/11 05:06:16;;;;;;;23.35;13.6;;;;;;;1.75;100;96285.05;;;;
2022/01/11 05:07:17;;;;;;;23.35;13.6;;;;;;;1.75;100;96285.05;;;;
2022/01/11 05:08:17;;;;;;;23.35;13.6;;;;;;;1.75;100;96285.05;;;;
2022/01/11 05:09:18;;;;;;;23.35;13.6;;;;;;;1.75;100;96285.05;;;;
2022/01/11 05:10:18;;;;;;;23.35;13.6;;;;;;;1.75;100;96285.05;;;;
2022/01/11 05:11:20;;;;;;;23.55;13.55;;;;;;;1.82;100;96285.27;;;;
2022/01/11 05:12:20;;;;;;;23.55;13.55;;;;;;;1.82;100;96285.27;;;;
2022/01/11 05:13:21;;;;;;;23.55;13.55;;;;;;;1.82;100;96285.27;;;;
2022/01/11 05:14:21;;;;;;;23.55;13.55;;;;;;;1.82;100;96285.27;;;;
2022/01/11 05:15:25;;;;;;;23.55;13.55;;;;;;;1.82;100;96285.27;;;;
2022/01/11 05:16:25;;;;;;;23.55;13.55;;;;;;;1.82;100;96285.27;;;;
2022/01/11 05:17:26;;;;;;;23.55;13.55;;;;;;;1.82;100;96285.27;;;;
2022/01/11 05:18:26;;;;;;;23.55;13.55;;;;;;;1.82;100;96285.27;;;;
2022/01/11 05:19:26;;;;;;;23.55;13.55;;;;;;;1.82;100;96285.27;;;;
2022/01/11 05:20:27;;;;;;;23.55;13.55;;;;;;;1.82;100;96285.27;;;;
2022/01/11 05:21:28;;;;;;;21.35;13.1;;;;;;;1.79;100;96294.89;;;;
2022/01/11 05:22:28;;;;;;;21.35;13.1;;;;;;;1.79;100;96294.89;;;;
2022/01/11 05:23:28;;;;;;;21.35;13.1;;;;;;;1.79;100;96294.89;;;;
2022/01/11 05:24:29;;;;;;;21.35;13.1;;;;;;;1.79;100;96294.89;;;;
2022/01/11 05:25:30;;;;;;;21.35;13.1;;;;;;;1.79;100;96294.89;;;;
2022/01/11 05:26:32;;;;;;;21.35;13.1;;;;;;;1.79;100;96294.89;;;;
2022/01/11 05:27:32;;;;;;;21.35;13.1;;;;;;;1.79;100;96294.89;;;;
2022/01/11 05:28:34;;;;;;;21.35;13.1;;;;;;;1.79;100;96294.89;;;;
2022/01/11 05:29:35;;;;;;;21.35;13.1;;;;;;;1.79;100;96294.89;;;;
2022/01/11 05:30:36;;;;;;;21.35;13.1;;;;;;;1.79;100;96294.89;;;;
2022/01/11 05:31:37;;;;;;;21.35;13.1;;;;;;;1.79;100;96294.89;;;;
2022/01/11 05:32:38;;;;;;;21.9;13.45;;;;;;;1.83;100;96301.51;;;;
2022/01/11 05:33:39;;;;;;;21.9;13.45;;;;;;;1.83;100;96301.51;;;;
2022/01/11 05:34:39;;;;;;;21.9;13.45;;;;;;;1.83;100;96301.51;;;;
2022/01/11 05:35:40;;;;;;;21.9;13.45;;;;;;;1.83;100;96301.51;;;;
2022/01/11 05:36:41;;;;;;;21.9;13.45;;;;;;;1.83;100;96301.51;;;;
2022/01/11 05:37:41;;;;;;;21.9;13.45;;;;;;;1.83;100;96301.51;;;;
2022/01/11 05:38:42;;;;;;;21.9;13.45;;;;;;;1.83;100;96301.51;;;;
2022/01/11 05:39:43;;;;;;;21.9;13.45;;;;;;;1.83;100;96301.51;;;;
2022/01/11 05:40:43;;;;;;;21.9;13.45;;;;;;;1.83;100;96301.51;;;;
2022/01/11 05:41:44;;;;;;;21.9;13.45;;;;;;;1.83;100;96301.51;;;;
2022/01/11 05:42:44;;;;;;;24;13.55;;;;;;;1.9;100;96305.27;;;;
2022/01/11 05:43:47;;;;;;;24;13.55;;;;;;;1.9;100;96305.27;;;;
2022/01/11 05:44:47;;;;;;;24;13.55;;;;;;;1.9;100;96305.27;;;;
2022/01/11 05:45:48;;;;;;;24;13.55;;;;;;;1.9;100;96305.27;;;;
2022/01/11 05:46:49;;;;;;;24;13.55;;;;;;;1.9;100;96305.27;;;;
2022/01/11 05:47:52;;;;;;;24;13.55;;;;;;;1.9;100;96305.27;;;;
2022/01/11 05:48:53;;;;;;;24;13.55;;;;;;;1.9;100;96305.27;;;;
2022/01/11 05:49:53;;;;;;;24;13.55;;;;;;;1.9;100;96305.27;;;;
2022/01/11 05:50:54;;;;;;;24;13.55;;;;;;;1.9;100;96305.27;;;;
2022/01/11 05:51:54;;;;;;;24;13.55;;;;;;;1.9;100;96305.27;;;;
2022/01/11 05:52:55;;;;;;;24;13.55;;;;;;;1.9;100;96305.27;;;;
2022/01/11 05:53:56;;;;;;;21.65;13.4;;;;;;;1.93;100;96318.26;;;;
2022/01/11 05:54:57;;;;;;;21.65;13.4;;;;;;;1.93;100;96318.26;;;;
2022/01/11 05:55:57;;;;;;;21.65;13.4;;;;;;;1.93;100;96318.26;;;;
2022/01/11 05:56:58;;;;;;;21.65;13.4;;;;;;;1.93;100;96318.26;;;;
2022/01/11 05:57:58;;;;;;;21.65;13.4;;;;;;;1.93;100;96318.26;;;;
2022/01/11 05:58:59;;;;;;;21.65;13.4;;;;;;;1.93;100;96318.26;;;;
2022/01/11 06:00:00;;;;;;;21.65;13.4;;;;;;;1.93;100;96318.26;;;;
2022/01/11 06:01:00;;;;;;;21.65;13.4;;;;;;;1.93;100;96318.26;;;;
2022/01/11 06:02:02;;;;;;;21.65;13.4;;;;;;;1.93;100;96318.26;;;;
2022/01/11 06:03:03;;;;;;;21.65;13.4;;;;;;;1.93;100;96318.26;;;;
2022/01/11 06:04:04;;;;;;;21.55;12.8;;;;;;;1.96;100;96337.03;;;;
2022/01/11 06:05:05;;;;;;;21.55;12.8;;;;;;;1.96;100;96337.03;;;;
2022/01/11 06:06:06;;;;;;;21.55;12.8;;;;;;;1.96;100;96337.03;;;;
2022/01/11 06:07:07;;;;;;;21.55;12.8;;;;;;;1.96;100;96337.03;;;;
2022/01/11 06:08:07;;;;;;;21.55;12.8;;;;;;;1.96;100;96337.03;;;;
2022/01/11 06:09:08;;;;;;;21.55;12.8;;;;;;;1.96;100;96337.03;;;;
2022/01/11 06:10:09;;;;;;;21.55;12.8;;;;;;;1.96;100;96337.03;;;;
2022/01/11 06:11:11;;;;;;;21.55;12.8;;;;;;;1.96;100;96337.03;;;;
2022/01/11 06:12:11;;;;;;;21.55;12.8;;;;;;;1.96;100;96337.03;;;;
2022/01/11 06:13:12;;;;;;;21.55;12.8;;;;;;;1.96;100;96337.03;;;;
2022/01/11 06:14:13;;;;;;;21.55;12.8;;;;;;;1.96;100;96337.03;;;;
2022/01/11 06:15:13;;;;;;;22.45;14.2;;;;;;;1.95;100;96350.83;;;;
2022/01/11 06:16:14;;;;;;;22.45;14.2;;;;;;;1.95;100;96350.83;;;;
2022/01/11 06:17:14;;;;;;;22.45;14.2;;;;;;;1.95;100;96350.83;;;;
2022/01/11 06:18:15;;;;;;;22.45;14.2;;;;;;;1.95;100;96350.83;;;;
2022/01/11 06:19:16;;;;;;;22.45;14.2;;;;;;;1.95;100;96350.83;;;;
2022/01/11 06:20:17;;;;;;;22.45;14.2;;;;;;;1.95;100;96350.83;;;;
2022/01/11 06:21:18;;;;;;;22.45;14.2;;;;;;;1.95;100;96350.83;;;;
2022/01/11 06:22:18;;;;;;;22.45;14.2;;;;;;;1.95;100;96350.83;;;;
2022/01/11 06:23:18;;;;;;;22.45;14.2;;;;;;;1.95;100;96350.83;;;;